Time,TemperatureF,DewpointF,PressureIn,WindDirection,WindDirectionDegrees,WindSpeedMPH,WindSpeedGustMPH,Humidity,HourlyPrecipIn,Conditions,Clouds,dailyrainin,SoftwareType,DateUTC
2013-07-29 00:02:00,55.0,50.0,-100.00,SW,235,4.0,8.0,83,-99.99,,,-99.99,,2013-07-29 06:02:00,
2013-07-29 00:12:00,55.0,50.0,-100.00,SW,235,4.0,8.0,83,-99.99,,,-99.99,,2013-07-29 06:12:00,
2013-07-29 00:22:00,55.0,50.0,-100.00,WSW,241,6.0,11.0,83,-99.99,,,-99.99,,2013-07-29 06:22:00,
2013-07-29 00:32:00,55.0,50.0,-100.00,WSW,241,6.0,11.0,83,-99.99,,,-99.99,,2013-07-29 06:32:00,
2013-07-29 00:52:00,54.0,48.0,-100.00,WSW,244,5.0,9.0,80,-99.99,,,-99.99,,2013-07-29 06:52:00,
2013-07-29 01:02:00,54.0,48.0,-100.00,WSW,237,4.0,7.0,81,-99.99,,,-99.99,,2013-07-29 07:02:00,
2013-07-29 01:12:00,54.0,48.0,-100.00,WSW,237,4.0,7.0,81,-99.99,,,-99.99,,2013-07-29 07:12:00,
2013-07-29 01:22:00,54.0,48.0,-100.00,WSW,249,5.0,8.0,80,-99.99,,,-99.99,,2013-07-29 07:22:00,
2013-07-29 01:33:00,54.0,48.0,-100.00,WSW,249,5.0,8.0,80,-99.99,,,-99.99,,2013-07-29 07:33:00,
2013-07-29 01:43:00,54.0,48.0,-100.00,SSW,210,3.0,6.0,82,-99.99,,,-99.99,,2013-07-29 07:43:00,
2013-07-29 01:53:00,54.0,48.0,-100.00,SSW,210,3.0,6.0,82,-99.99,,,-99.99,,2013-07-29 07:53:00,
2013-07-29 02:02:00,54.0,48.0,-100.00,SSW,205,3.0,5.0,82,-99.99,,,-99.99,,2013-07-29 08:02:00,
2013-07-29 02:12:00,54.0,48.0,-100.00,SSW,205,3.0,5.0,82,-99.99,,,-99.99,,2013-07-29 08:12:00,
2013-07-29 02:22:00,54.0,49.0,-100.00,SSW,207,2.0,5.0,82,-99.99,,,-99.99,,2013-07-29 08:22:00,
2013-07-29 02:33:00,54.0,49.0,-100.00,SSW,207,2.0,5.0,82,-99.99,,,-99.99,,2013-07-29 08:33:00,
2013-07-29 02:52:00,54.0,48.0,-100.00,WSW,258,1.0,4.0,78,-99.99,,,-99.99,,2013-07-29 08:52:00,
2013-07-29 03:02:00,54.0,48.0,-100.00,WSW,237,3.0,5.0,77,-99.99,,,-99.99,,2013-07-29 09:02:00,
2013-07-29 03:12:00,54.0,48.0,-100.00,WSW,248,3.0,5.0,78,-99.99,,,-99.99,,2013-07-29 09:12:00,
2013-07-29 03:22:00,54.0,48.0,-100.00,WSW,248,3.0,5.0,78,-99.99,,,-99.99,,2013-07-29 09:22:00,
2013-07-29 03:33:00,54.0,48.0,-100.00,WSW,248,3.0,5.0,78,-99.99,,,-99.99,,2013-07-29 09:33:00,
2013-07-29 03:43:00,53.0,48.0,-100.00,WSW,240,5.0,9.0,80,-99.99,,,-99.99,,2013-07-29 09:43:00,
2013-07-29 03:53:00,53.0,48.0,-100.00,WSW,240,5.0,9.0,80,-99.99,,,-99.99,,2013-07-29 09:53:00,
2013-07-29 04:02:00,53.0,48.0,-100.00,SSW,210,4.0,9.0,81,-99.99,,,-99.99,,2013-07-29 10:02:00,
2013-07-29 04:13:00,53.0,48.0,-100.00,SSW,210,4.0,9.0,81,-99.99,,,-99.99,,2013-07-29 10:13:00,
2013-07-29 04:23:00,54.0,47.0,-100.00,SW,225,4.0,7.0,79,-99.99,,,-99.99,,2013-07-29 10:23:00,
2013-07-29 04:45:00,54.0,47.0,-100.00,WSW,251,6.0,9.0,76,-99.99,,,-99.99,,2013-07-29 10:45:00,
2013-07-29 04:55:00,54.0,47.0,-100.00,WSW,251,6.0,9.0,76,-99.99,,,-99.99,,2013-07-29 10:55:00,
2013-07-29 05:03:00,54.0,47.0,-100.00,SW,229,3.0,9.0,77,-99.99,,,-99.99,,2013-07-29 11:03:00,
2013-07-29 05:22:00,54.0,47.0,-100.00,WSW,243,2.0,4.0,77,-99.99,,,-99.99,,2013-07-29 11:22:00,
2013-07-29 05:34:00,54.0,47.0,-100.00,WSW,243,2.0,4.0,77,-99.99,,,-99.99,,2013-07-29 11:34:00,
2013-07-29 05:44:00,54.0,47.0,-100.00,WSW,258,6.0,8.0,76,-99.99,,,-99.99,,2013-07-29 11:44:00,
2013-07-29 05:58:00,54.0,47.0,-100.00,WSW,258,6.0,8.0,76,-99.99,,,-99.99,,2013-07-29 11:58:00,
2013-07-29 06:05:00,54.0,47.0,-100.00,SW,228,3.0,6.0,77,-99.99,,,-99.99,,2013-07-29 12:05:00,
2013-07-29 06:13:00,54.0,48.0,-100.00,SSW,202,2.0,3.0,79,-99.99,,,-99.99,,2013-07-29 12:13:00,
2013-07-29 06:23:00,54.0,48.0,-100.00,SSW,202,2.0,3.0,79,-99.99,,,-99.99,,2013-07-29 12:23:00,
2013-07-29 06:34:00,54.0,48.0,-100.00,SSW,202,2.0,3.0,79,-99.99,,,-99.99,,2013-07-29 12:34:00,
2013-07-29 06:44:00,54.0,49.0,-100.00,SW,222,1.0,3.0,82,-99.99,,,-99.99,,2013-07-29 12:44:00,
2013-07-29 06:57:00,54.0,49.0,-100.00,SW,222,1.0,3.0,82,-99.99,,,-99.99,,2013-07-29 12:57:00,
2013-07-29 07:03:00,54.0,49.0,-100.00,SW,227,2.0,4.0,83,-99.99,,,-99.99,,2013-07-29 13:03:00,
2013-07-29 07:13:00,54.0,49.0,-100.00,SW,227,2.0,4.0,83,-99.99,,,-99.99,,2013-07-29 13:13:00,
2013-07-29 07:34:00,54.0,49.0,-100.00,SW,227,1.0,2.0,84,-99.99,,,-99.99,,2013-07-29 13:34:00,
2013-07-29 07:57:00,54.0,49.0,-100.00,SW,218,1.0,3.0,83,-99.99,,,-99.99,,2013-07-29 13:57:00,
2013-07-29 08:03:00,55.0,50.0,-100.00,SSW,201,0.0,2.0,82,-99.99,,,-99.99,,2013-07-29 14:03:00,
2013-07-29 08:12:00,55.0,50.0,-100.00,SSW,201,0.0,2.0,82,-99.99,,,-99.99,,2013-07-29 14:12:00,
2013-07-29 08:24:00,56.0,49.0,-100.00,NNW,328,0.0,2.0,78,-99.99,,,-99.99,,2013-07-29 14:24:00,
2013-07-29 08:33:00,56.0,49.0,-100.00,NNW,328,0.0,2.0,78,-99.99,,,-99.99,,2013-07-29 14:33:00,
2013-07-29 08:57:00,59.0,50.0,-100.00,ESE,104,2.0,4.0,71,-99.99,,,-99.99,,2013-07-29 14:57:00,
2013-07-29 09:12:00,58.0,50.0,-100.00,East,83,3.0,5.0,72,-99.99,,,-99.99,,2013-07-29 15:12:00,
2013-07-29 09:24:00,60.0,50.0,-100.00,ENE,76,2.0,4.0,70,-99.99,,,-99.99,,2013-07-29 15:24:00,
2013-07-29 09:55:00,64.0,51.0,-100.00,ESE,107,1.0,3.0,61,-99.99,,,-99.99,,2013-07-29 15:55:00,
2013-07-29 10:04:00,65.0,51.0,-100.00,ESE,123,4.0,8.0,60,-99.99,,,-99.99,,2013-07-29 16:04:00,
2013-07-29 10:23:00,64.0,50.0,-100.00,ESE,115,6.0,10.0,58,-99.99,,,-99.99,,2013-07-29 16:23:00,
2013-07-29 10:35:00,64.0,50.0,-100.00,ESE,115,6.0,10.0,58,-99.99,,,-99.99,,2013-07-29 16:35:00,
2013-07-29 10:57:00,69.0,50.0,-100.00,SE,128,4.0,10.0,51,-99.99,,,-99.99,,2013-07-29 16:57:00,
2013-07-29 11:05:00,70.0,50.0,-100.00,SE,128,4.0,6.0,48,-99.99,,,-99.99,,2013-07-29 17:05:00,
2013-07-29 11:13:00,70.0,50.0,-100.00,SE,128,4.0,6.0,48,-99.99,,,-99.99,,2013-07-29 17:13:00,
2013-07-29 11:23:00,72.0,50.0,-100.00,SE,134,3.0,8.0,46,-99.99,,,-99.99,,2013-07-29 17:23:00,
2013-07-29 11:43:00,72.0,50.0,-100.00,SE,134,3.0,8.0,46,-99.99,,,-99.99,,2013-07-29 17:43:00,
2013-07-29 11:58:00,73.0,46.0,-100.00,NNW,342,2.0,6.0,38,-99.99,,,-99.99,,2013-07-29 17:58:00,
2013-07-29 12:13:00,72.0,45.0,-100.00,NE,47,4.0,8.0,38,-99.99,,,-99.99,,2013-07-29 18:13:00,
2013-07-29 12:23:00,72.0,46.0,-100.00,NNW,348,4.0,10.0,40,-99.99,,,-99.99,,2013-07-29 18:23:00,
2013-07-29 12:33:00,72.0,46.0,-100.00,NNW,348,4.0,10.0,40,-99.99,,,-99.99,,2013-07-29 18:33:00,
2013-07-29 13:02:00,73.0,46.0,-100.00,West,280,6.0,13.0,38,-99.99,,,-99.99,,2013-07-29 19:02:00,
2013-07-29 13:14:00,73.0,46.0,-100.00,West,280,6.0,13.0,38,-99.99,,,-99.99,,2013-07-29 19:14:00,
2013-07-29 13:24:00,73.0,43.0,-100.00,West,278,9.0,15.0,34,-99.99,,,-99.99,,2013-07-29 19:24:00,
2013-07-29 13:35:00,73.0,43.0,-100.00,West,278,9.0,15.0,34,-99.99,,,-99.99,,2013-07-29 19:35:00,
2013-07-29 13:44:00,66.0,53.0,-100.00,West,267,8.0,14.0,62,-99.99,,,-99.99,,2013-07-29 19:44:00,
2013-07-29 13:57:00,66.0,53.0,-100.00,West,267,8.0,14.0,62,-99.99,,,-99.99,,2013-07-29 19:57:00,
2013-07-29 14:04:00,68.0,50.0,-100.00,West,261,7.0,13.0,53,-99.99,,,-99.99,,2013-07-29 20:04:00,
2013-07-29 14:13:00,68.0,50.0,-100.00,West,261,7.0,13.0,53,-99.99,,,-99.99,,2013-07-29 20:13:00,
2013-07-29 14:23:00,68.0,49.0,-100.00,WNW,282,7.0,13.0,50,-99.99,,,-99.99,,2013-07-29 20:23:00,
2013-07-29 14:33:00,68.0,49.0,-100.00,WNW,282,7.0,13.0,50,-99.99,,,-99.99,,2013-07-29 20:33:00,
2013-07-29 14:45:00,70.0,50.0,-100.00,West,264,7.0,13.0,48,-99.99,,,-99.99,,2013-07-29 20:45:00,
2013-07-29 14:58:00,70.0,50.0,-100.00,West,264,7.0,13.0,48,-99.99,,,-99.99,,2013-07-29 20:58:00,
2013-07-29 15:14:00,70.0,50.0,-100.00,West,268,6.0,11.0,49,-99.99,,,-99.99,,2013-07-29 21:14:00,
2013-07-29 15:33:00,71.0,48.0,-100.00,West,279,5.0,9.0,44,-99.99,,,-99.99,,2013-07-29 21:33:00,
2013-07-29 16:00:00,71.0,45.0,-100.00,WNW,291,5.0,9.0,39,-99.99,,,-99.99,,2013-07-29 22:00:00,
2013-07-29 16:13:00,73.0,43.0,-100.00,NW,311,3.0,8.0,34,-99.99,,,-99.99,,2013-07-29 22:13:00,
2013-07-29 16:23:00,75.0,42.0,-100.00,NE,54,4.0,9.0,31,-99.99,,,-99.99,,2013-07-29 22:23:00,
2013-07-29 16:43:00,75.0,44.0,-100.00,NE,56,3.0,8.0,32,-99.99,,,-99.99,,2013-07-29 22:43:00,
2013-07-29 17:04:00,76.0,43.0,-100.00,NE,38,3.0,9.0,31,-99.99,,,-99.99,,2013-07-29 23:04:00,
2013-07-29 17:12:00,76.0,43.0,-100.00,NE,38,3.0,9.0,31,-99.99,,,-99.99,,2013-07-29 23:12:00,
2013-07-29 17:24:00,76.0,45.0,-100.00,ESE,109,3.0,7.0,33,-99.99,,,-99.99,,2013-07-29 23:24:00,
2013-07-29 17:34:00,76.0,45.0,-100.00,ESE,109,3.0,7.0,33,-99.99,,,-99.99,,2013-07-29 23:34:00,
2013-07-29 17:56:00,76.0,45.0,-100.00,West,278,7.0,13.0,32,-99.99,,,-99.99,,2013-07-29 23:56:00,
2013-07-29 18:14:00,77.0,45.0,-100.00,West,262,5.0,10.0,32,-99.99,,,-99.99,,2013-07-30 00:14:00,
2013-07-29 18:23:00,77.0,45.0,-100.00,WNW,298,3.0,8.0,33,-99.99,,,-99.99,,2013-07-30 00:23:00,
2013-07-29 18:55:00,75.0,46.0,-100.00,WNW,283,5.0,9.0,35,-99.99,,,-99.99,,2013-07-30 00:55:00,
2013-07-29 19:05:00,75.0,44.0,-100.00,WNW,288,6.0,12.0,33,-99.99,,,-99.99,,2013-07-30 01:05:00,
2013-07-29 19:14:00,75.0,44.0,-100.00,WNW,288,6.0,12.0,33,-99.99,,,-99.99,,2013-07-30 01:14:00,
2013-07-29 19:23:00,76.0,44.0,-100.00,WNW,289,6.0,11.0,32,-99.99,,,-99.99,,2013-07-30 01:23:00,
2013-07-29 19:34:00,76.0,44.0,-100.00,WNW,289,6.0,11.0,32,-99.99,,,-99.99,,2013-07-30 01:34:00,
2013-07-29 19:59:00,73.0,44.0,-100.00,WNW,290,7.0,12.0,34,-99.99,,,-99.99,,2013-07-30 01:59:00,
2013-07-29 20:13:00,72.0,46.0,-100.00,WNW,292,6.0,10.0,39,-99.99,,,-99.99,,2013-07-30 02:13:00,
2013-07-29 20:23:00,72.0,46.0,-100.00,WNW,292,6.0,10.0,39,-99.99,,,-99.99,,2013-07-30 02:23:00,
2013-07-29 20:34:00,72.0,46.0,-100.00,WNW,292,6.0,10.0,39,-99.99,,,-99.99,,2013-07-30 02:34:00,
2013-07-29 20:55:00,70.0,47.0,-100.00,WNW,282,5.0,8.0,42,-99.99,,,-99.99,,2013-07-30 02:55:00,
2013-07-29 21:14:00,68.0,49.0,-100.00,SW,220,2.0,4.0,50,-99.99,,,-99.99,,2013-07-30 03:14:00,
2013-07-29 21:24:00,68.0,49.0,-100.00,SW,220,2.0,4.0,50,-99.99,,,-99.99,,2013-07-30 03:24:00,
2013-07-29 21:33:00,68.0,49.0,-100.00,SW,220,2.0,4.0,50,-99.99,,,-99.99,,2013-07-30 03:33:00,
2013-07-29 21:55:00,64.0,48.0,-100.00,ESE,120,5.0,9.0,57,-99.99,,,-99.99,,2013-07-30 03:55:00,
2013-07-29 22:02:00,63.0,48.0,-100.00,South,188,3.0,6.0,59,-99.99,,,-99.99,,2013-07-30 04:02:00,
2013-07-29 22:22:00,60.0,49.0,-100.00,SW,224,3.0,5.0,64,-99.99,,,-99.99,,2013-07-30 04:22:00,
2013-07-29 22:33:00,60.0,49.0,-100.00,SW,224,3.0,5.0,64,-99.99,,,-99.99,,2013-07-30 04:33:00,
2013-07-29 22:43:00,60.0,48.0,-100.00,South,171,5.0,9.0,64,-99.99,,,-99.99,,2013-07-30 04:43:00,
2013-07-29 22:53:00,60.0,48.0,-100.00,South,171,5.0,9.0,64,-99.99,,,-99.99,,2013-07-30 04:53:00,
2013-07-29 23:02:00,59.0,48.0,-100.00,WSW,237,3.0,5.0,67,-99.99,,,-99.99,,2013-07-30 05:02:00,
2013-07-29 23:12:00,59.0,48.0,-100.00,WSW,237,3.0,5.0,67,-99.99,,,-99.99,,2013-07-30 05:12:00,
2013-07-29 23:22:00,56.0,48.0,-100.00,SW,235,3.0,6.0,71,-99.99,,,-99.99,,2013-07-30 05:22:00,
2013-07-29 23:32:00,56.0,48.0,-100.00,SW,235,3.0,6.0,71,-99.99,,,-99.99,,2013-07-30 05:32:00,
2013-07-29 23:45:00,56.0,47.0,-100.00,SW,232,4.0,6.0,73,-99.99,,,-99.99,,2013-07-30 05:45:00,
2013-07-29 23:52:00,56.0,47.0,-100.00,SW,232,4.0,6.0,73,-99.99,,,-99.99,,2013-07-30 05:52:00,